Costa Romantica — IBCR — position and weather

sailwx.info

Track history (hours):
 
Tides and Currents Weather Stations Pressure Air Temp Water Temp Dewpoint Dewpoint Depression Visibility Wind Speed Wind Dir Waves Ship Positions

Costa Romantica

Last reported at 2019-Sep-19 11:40 UTC. Time now 2019-Sep-19 18:53 UTC.
Position N 38°20' E 122°25'.

Length 221 m; draft 7.8 m.

Type: Ship. MMSI: 247817000.

Date/timePositionNaut miles runAvg speedWind from/ knotsBaromVisibWave heightAir tempDewpointWater temp
2019-Sep-19 11:40N 38°20' E 122°25'416.1
2019-Sep-19 11:26N 38°22' E 122°22'716.1
2019-Sep-19 11:00N 38°27' E 122°15'816.2
2019-Sep-19 10:30N 38°33' E 122°08'816.3
2019-Sep-19 10:00N 38°39' E 122°01'816.4
2019-Sep-19 09:30N 38°45' E 121°53'816.2
2019-Sep-19 09:00N 38°50' E 121°46'711.2
2019-Sep-19 08:23N 38°56' E 121°41'1 0.1
2019-Sep-18 23:08N 38°56' E 121°40'1 8.9
2019-Sep-18 23:00N 38°56' E 121°41'611.1
2019-Sep-18 22:28N 38°52' E 121°47'912.5
2019-Sep-18 21:43N 38°44' E 121°53'514.1
2019-Sep-18 21:24N 38°40' E 121°57'  
2019-Sep-13 22:04N 38°49' E 121°50'  
2019-Sep-09 14:32N 37°45' E 123°10'  
Track history (hours):
 
Tides and Currents Weather Stations Pressure Air Temp Water Temp Dewpoint Dewpoint Depression Visibility Wind Speed Wind Dir Waves Ship Positions

Costa Romantica

Last reported at 2019-Sep-19 11:40 UTC. Time now 2019-Sep-19 18:53 UTC.
Position N 38°20' E 122°25'.

Length 221 m; draft 7.8 m.

Type: Ship. MMSI: 247817000.

Date/timePositionNaut miles runAvg speedWind from/ knotsBaromVisibWave heightAir tempDewpointWater temp
2019-Sep-19 11:40N 38°20' E 122°25'416.1
2019-Sep-19 11:26N 38°22' E 122°22'716.1
2019-Sep-19 11:00N 38°27' E 122°15'816.2
2019-Sep-19 10:30N 38°33' E 122°08'816.3
2019-Sep-19 10:00N 38°39' E 122°01'816.4
2019-Sep-19 09:30N 38°45' E 121°53'816.2
2019-Sep-19 09:00N 38°50' E 121°46'711.2
2019-Sep-19 08:23N 38°56' E 121°41'1 0.1
2019-Sep-18 23:08N 38°56' E 121°40'1 8.9
2019-Sep-18 23:00N 38°56' E 121°41'611.1
2019-Sep-18 22:28N 38°52' E 121°47'912.5
2019-Sep-18 21:43N 38°44' E 121°53'514.1
2019-Sep-18 21:24N 38°40' E 121°57'  
2019-Sep-13 22:04N 38°49' E 121°50'  
2019-Sep-09 14:32N 37°45' E 123°10'  

Dump ship's entire track history